LPPSLPFR

Guest
Details From LPPS - Porto Santo
To LPFR - Faro
Flight Number -
Tags decoded
Created
Modified
Stats Distance 475 nm / 879 km
Max Altitude 0 ft / 0 m
Waypoints 2
Social Downloads 0
Likes 0
Share VATSIM

Download

Looking for another format? Having issues loading an existing format? Contact us
Advertisement - Login to hide

Notes

Requested: LPPS LPFR

Route

LPPS LPFR

ID Type Via Altitude Latitude Longitude Leg Dist Tot Dist Heading (true) Name
O LPPS APT - 0 ft / 0 m 33.07341˚ -16.34995˚ - 0 nm - Porto Santo
O LPFR APT - 0 ft / 0 m 37.01534˚ -7.97233˚ 474 nm 474 nm 58° / 63° Faro

Altitude Profile

Advertisement - Login to hide

Weather


0- 5 10 15 20 25 30 35+ Temperature / ° C

Clouds and Precipitation
Forecast for 2018-06-25 12:00 UTC. Updated 4 hours ago

Ground ~20,000 ft ~40,000 ft Winds

LPPS

Details ICAO LPPS (PXO)
Name Porto Santo
Region Portugal
Timezone Atlantic/Madeira (UTC+1.0)
Stats Elevation 340 ft / 104 m (AMSL)
Location 33.073413° -16.349946°
Runways 1
Magnetic Variation 4.754° W

METAR

LPPS 251330Z 25008KT 230V290 9999 SCT015 23/14 Q1020

Decode

TAF

TAF LPPS 251100Z 2512/2618 27007KT 9999 FEW015 TEMPO 2512/2618 SCT015 SCT030 BECMG 2516/2519 VRB05KT

Decode

Departure Runways

ID Width Length Bearing (true) Bearing (mag) Surface Threshold Offset Overrun Length
18 148 ft / 45 m 9,890 ft / 3,014 m 178.11° 182.86° Asphalt 0 ft / 0 m 0 ft / 0 m
36 148 ft / 45 m 9,890 ft / 3,014 m 358.12° 2.87° Asphalt 0 ft / 0 m 499 ft / 152 m

LPFR

Details ICAO LPFR (FAO)
Name Faro
Region Portugal
Timezone Europe/Lisbon (UTC+1.0)
Stats Elevation 24 ft / 7 m (AMSL)
Location 37.015336° -7.972327°
Runways 1
Magnetic Variation 1.873° W

METAR

LPFR 251330Z 23009KT 9999 FEW020 22/17 Q1017

Decode

TAF

TAF LPFR 251100Z 2512/2612 25007KT 9999 BKN030 BECMG 2512/2515 24013KT CAVOK BECMG 2517/2520 32012KT BECMG 2600/2603 33005KT BECMG 2606/2608 VRB03KT BECMG 2610/2612 25012KT

Decode

Destination Runways

ID Width Length Bearing (true) Bearing (mag) Surface Threshold Offset Overrun Length
10 148 ft / 45 m 8,148 ft / 2,484 m 100.08° 101.95° Asphalt 148 ft / 45 m 0 ft / 0 m
28 148 ft / 45 m 8,148 ft / 2,484 m 280.10° 281.97° Asphalt 148 ft / 45 m 0 ft / 0 m

Approach Navaids

Runway Type Ident Frequency Range Bearing (true) Bearing (mag) Slope Elevation
28 Localiser IIF 109.50 MHz 18 nm / 33 km 280.16° 282.03° - 24 ft / 7 m (AMSL)
28 Glidescope IIF 109.50 MHz 10 nm / 19 km 280.09° 281.96° 3.00° 24 ft / 7 m (AMSL)
28 DME IIF 109.50 MHz 18 nm / 33 km - - - 24 ft / 7 m (AMSL)

Popular Alternatives